sensor_id;sensor_type;location;lat;lon;timestamp;P1;durP1;ratioP1;P2;durP2;ratioP2
23266;SDS011;11802;53.160;8.214;2023-12-29T00:02:10;9.10;;;2.07;;
23266;SDS011;11802;53.160;8.214;2023-12-29T00:04:35;11.37;;;2.50;;
23266;SDS011;11802;53.160;8.214;2023-12-29T00:07:01;11.47;;;2.50;;
23266;SDS011;11802;53.160;8.214;2023-12-29T00:09:27;8.23;;;1.90;;
23266;SDS011;11802;53.160;8.214;2023-12-29T00:11:53;6.73;;;2.47;;
23266;SDS011;11802;53.160;8.214;2023-12-29T00:14:19;13.03;;;2.30;;
23266;SDS011;11802;53.160;8.214;2023-12-29T00:16:45;4.83;;;1.90;;
23266;SDS011;11802;53.160;8.214;2023-12-29T00:19:11;11.70;;;2.70;;
23266;SDS011;11802;53.160;8.214;2023-12-29T00:21:37;10.73;;;2.63;;
23266;SDS011;11802;53.160;8.214;2023-12-29T00:24:03;12.10;;;2.37;;
23266;SDS011;11802;53.160;8.214;2023-12-29T00:26:29;13.70;;;2.90;;
23266;SDS011;11802;53.160;8.214;2023-12-29T00:28:55;7.80;;;2.23;;
23266;SDS011;11802;53.160;8.214;2023-12-29T00:31:20;9.80;;;2.90;;
23266;SDS011;11802;53.160;8.214;2023-12-29T00:33:46;12.33;;;2.60;;
23266;SDS011;11802;53.160;8.214;2023-12-29T00:36:15;10.17;;;2.00;;
23266;SDS011;11802;53.160;8.214;2023-12-29T00:38:41;11.93;;;2.43;;
23266;SDS011;11802;53.160;8.214;2023-12-29T00:41:07;11.07;;;2.30;;
23266;SDS011;11802;53.160;8.214;2023-12-29T00:43:33;9.23;;;1.67;;
23266;SDS011;11802;53.160;8.214;2023-12-29T00:45:58;7.63;;;2.03;;
23266;SDS011;11802;53.160;8.214;2023-12-29T00:48:25;9.53;;;2.00;;
23266;SDS011;11802;53.160;8.214;2023-12-29T00:50:51;13.43;;;2.60;;
23266;SDS011;11802;53.160;8.214;2023-12-29T00:53:17;8.43;;;2.03;;
23266;SDS011;11802;53.160;8.214;2023-12-29T00:55:42;11.57;;;2.40;;
23266;SDS011;11802;53.160;8.214;2023-12-29T00:58:08;10.70;;;2.13;;
23266;SDS011;11802;53.160;8.214;2023-12-29T01:00:33;9.57;;;2.10;;
23266;SDS011;11802;53.160;8.214;2023-12-29T01:02:59;8.93;;;1.90;;
23266;SDS011;11802;53.160;8.214;2023-12-29T01:05:24;10.50;;;1.97;;
23266;SDS011;11802;53.160;8.214;2023-12-29T01:07:51;9.63;;;1.97;;
23266;SDS011;11802;53.160;8.214;2023-12-29T01:10:16;8.80;;;1.80;;
23266;SDS011;11802;53.160;8.214;2023-12-29T01:12:42;7.30;;;1.83;;
23266;SDS011;11802;53.160;8.214;2023-12-29T01:15:08;6.57;;;1.60;;
23266;SDS011;11802;53.160;8.214;2023-12-29T01:17:33;8.47;;;2.23;;
23266;SDS011;11802;53.160;8.214;2023-12-29T01:19:59;7.83;;;1.60;;
23266;SDS011;11802;53.160;8.214;2023-12-29T01:22:25;9.47;;;2.03;;
23266;SDS011;11802;53.160;8.214;2023-12-29T01:24:50;10.93;;;1.77;;
23266;SDS011;11802;53.160;8.214;2023-12-29T01:27:16;9.50;;;2.43;;
23266;SDS011;11802;53.160;8.214;2023-12-29T01:29:41;6.20;;;1.97;;
23266;SDS011;11802;53.160;8.214;2023-12-29T01:32:07;9.40;;;1.70;;
23266;SDS011;11802;53.160;8.214;2023-12-29T01:34:33;6.50;;;2.03;;
23266;SDS011;11802;53.160;8.214;2023-12-29T01:36:59;7.37;;;1.50;;
23266;SDS011;11802;53.160;8.214;2023-12-29T01:39:27;6.17;;;1.90;;
23266;SDS011;11802;53.160;8.214;2023-12-29T01:41:52;9.60;;;2.23;;
23266;SDS011;11802;53.160;8.214;2023-12-29T01:44:21;5.77;;;1.97;;
23266;SDS011;11802;53.160;8.214;2023-12-29T01:46:49;7.17;;;1.60;;
23266;SDS011;11802;53.160;8.214;2023-12-29T01:49:16;4.83;;;1.60;;
23266;SDS011;11802;53.160;8.214;2023-12-29T01:51:43;8.87;;;1.60;;
23266;SDS011;11802;53.160;8.214;2023-12-29T01:54:09;4.23;;;1.20;;
23266;SDS011;11802;53.160;8.214;2023-12-29T01:56:36;4.57;;;1.30;;
23266;SDS011;11802;53.160;8.214;2023-12-29T01:59:02;7.47;;;1.50;;
23266;SDS011;11802;53.160;8.214;2023-12-29T02:01:29;6.13;;;1.40;;
23266;SDS011;11802;53.160;8.214;2023-12-29T02:03:55;4.80;;;1.50;;
23266;SDS011;11802;53.160;8.214;2023-12-29T02:06:21;7.27;;;1.90;;
23266;SDS011;11802;53.160;8.214;2023-12-29T02:08:48;7.80;;;2.07;;
23266;SDS011;11802;53.160;8.214;2023-12-29T02:11:15;8.53;;;1.80;;
23266;SDS011;11802;53.160;8.214;2023-12-29T02:13:42;11.70;;;2.37;;
23266;SDS011;11802;53.160;8.214;2023-12-29T02:16:25;6.53;;;1.97;;
23266;SDS011;11802;53.160;8.214;2023-12-29T02:18:53;9.57;;;2.00;;
23266;SDS011;11802;53.160;8.214;2023-12-29T02:21:25;7.37;;;1.70;;
23266;SDS011;11802;53.160;8.214;2023-12-29T02:23:51;6.43;;;1.77;;
23266;SDS011;11802;53.160;8.214;2023-12-29T02:26:16;6.10;;;1.80;;
23266;SDS011;11802;53.160;8.214;2023-12-29T02:28:48;8.70;;;2.20;;
23266;SDS011;11802;53.160;8.214;2023-12-29T02:31:22;7.40;;;2.00;;
23266;SDS011;11802;53.160;8.214;2023-12-29T02:33:52;4.20;;;1.80;;
23266;SDS011;11802;53.160;8.214;2023-12-29T02:36:18;6.90;;;1.90;;
23266;SDS011;11802;53.160;8.214;2023-12-29T02:38:45;11.57;;;2.63;;
23266;SDS011;11802;53.160;8.214;2023-12-29T02:41:11;9.97;;;2.10;;
23266;SDS011;11802;53.160;8.214;2023-12-29T02:43:38;8.67;;;1.90;;
23266;SDS011;11802;53.160;8.214;2023-12-29T02:46:04;6.23;;;1.93;;
23266;SDS011;11802;53.160;8.214;2023-12-29T02:48:29;6.70;;;1.80;;
23266;SDS011;11802;53.160;8.214;2023-12-29T02:50:55;10.30;;;2.00;;
23266;SDS011;11802;53.160;8.214;2023-12-29T02:53:20;7.73;;;1.90;;
23266;SDS011;11802;53.160;8.214;2023-12-29T02:55:46;6.60;;;1.70;;
23266;SDS011;11802;53.160;8.214;2023-12-29T02:58:11;9.57;;;2.00;;
23266;SDS011;11802;53.160;8.214;2023-12-29T03:00:37;9.10;;;2.00;;
23266;SDS011;11802;53.160;8.214;2023-12-29T03:03:03;10.70;;;2.30;;
23266;SDS011;11802;53.160;8.214;2023-12-29T03:05:28;5.33;;;2.27;;
23266;SDS011;11802;53.160;8.214;2023-12-29T03:07:54;10.57;;;2.50;;
23266;SDS011;11802;53.160;8.214;2023-12-29T03:10:19;8.67;;;2.10;;
23266;SDS011;11802;53.160;8.214;2023-12-29T03:12:45;8.97;;;2.17;;
23266;SDS011;11802;53.160;8.214;2023-12-29T03:15:10;4.00;;;1.10;;
23266;SDS011;11802;53.160;8.214;2023-12-29T03:17:36;4.10;;;0.80;;
23266;SDS011;11802;53.160;8.214;2023-12-29T03:20:02;5.33;;;1.03;;
23266;SDS011;11802;53.160;8.214;2023-12-29T03:22:29;3.77;;;1.00;;
23266;SDS011;11802;53.160;8.214;2023-12-29T03:24:55;2.53;;;0.70;;
23266;SDS011;11802;53.160;8.214;2023-12-29T03:27:20;5.20;;;1.03;;
23266;SDS011;11802;53.160;8.214;2023-12-29T03:29:46;5.73;;;1.07;;
23266;SDS011;11802;53.160;8.214;2023-12-29T03:32:11;4.63;;;1.07;;
23266;SDS011;11802;53.160;8.214;2023-12-29T03:34:37;4.60;;;1.20;;
23266;SDS011;11802;53.160;8.214;2023-12-29T03:37:03;6.80;;;1.60;;
23266;SDS011;11802;53.160;8.214;2023-12-29T03:39:28;8.93;;;1.87;;
23266;SDS011;11802;53.160;8.214;2023-12-29T03:41:54;6.03;;;1.37;;
23266;SDS011;11802;53.160;8.214;2023-12-29T03:44:20;10.87;;;1.83;;
23266;SDS011;11802;53.160;8.214;2023-12-29T03:46:46;7.53;;;1.27;;
23266;SDS011;11802;53.160;8.214;2023-12-29T03:49:12;12.93;;;1.43;;
23266;SDS011;11802;53.160;8.214;2023-12-29T03:51:37;7.60;;;1.23;;
23266;SDS011;11802;53.160;8.214;2023-12-29T03:54:03;10.63;;;1.60;;
23266;SDS011;11802;53.160;8.214;2023-12-29T03:56:28;5.07;;;1.30;;
23266;SDS011;11802;53.160;8.214;2023-12-29T03:58:54;4.27;;;1.07;;
23266;SDS011;11802;53.160;8.214;2023-12-29T04:01:20;5.50;;;1.10;;
23266;SDS011;11802;53.160;8.214;2023-12-29T04:03:45;4.03;;;1.10;;
23266;SDS011;11802;53.160;8.214;2023-12-29T04:06:11;7.23;;;1.10;;
23266;SDS011;11802;53.160;8.214;2023-12-29T04:08:37;7.13;;;1.67;;
23266;SDS011;11802;53.160;8.214;2023-12-29T04:11:04;9.93;;;1.40;;
23266;SDS011;11802;53.160;8.214;2023-12-29T04:13:30;6.43;;;1.10;;
23266;SDS011;11802;53.160;8.214;2023-12-29T04:15:56;7.60;;;1.20;;
23266;SDS011;11802;53.160;8.214;2023-12-29T04:18:22;8.63;;;1.63;;
23266;SDS011;11802;53.160;8.214;2023-12-29T04:20:48;6.13;;;1.30;;
23266;SDS011;11802;53.160;8.214;2023-12-29T04:23:15;8.80;;;1.57;;
23266;SDS011;11802;53.160;8.214;2023-12-29T04:25:41;5.90;;;1.53;;
23266;SDS011;11802;53.160;8.214;2023-12-29T04:28:07;7.17;;;2.20;;
23266;SDS011;11802;53.160;8.214;2023-12-29T04:30:32;4.60;;;1.37;;
23266;SDS011;11802;53.160;8.214;2023-12-29T04:32:58;7.17;;;2.10;;
23266;SDS011;11802;53.160;8.214;2023-12-29T04:35:24;5.87;;;1.80;;
23266;SDS011;11802;53.160;8.214;2023-12-29T04:37:49;8.50;;;2.33;;
23266;SDS011;11802;53.160;8.214;2023-12-29T04:40:16;6.13;;;1.93;;
23266;SDS011;11802;53.160;8.214;2023-12-29T04:42:42;10.30;;;2.37;;
23266;SDS011;11802;53.160;8.214;2023-12-29T04:45:08;12.50;;;3.00;;
23266;SDS011;11802;53.160;8.214;2023-12-29T04:47:35;13.70;;;2.70;;
23266;SDS011;11802;53.160;8.214;2023-12-29T04:50:00;10.67;;;3.00;;
23266;SDS011;11802;53.160;8.214;2023-12-29T04:52:27;7.77;;;2.50;;
23266;SDS011;11802;53.160;8.214;2023-12-29T04:54:52;11.43;;;3.07;;
23266;SDS011;11802;53.160;8.214;2023-12-29T04:57:18;10.53;;;2.97;;
23266;SDS011;11802;53.160;8.214;2023-12-29T04:59:43;9.73;;;2.27;;
23266;SDS011;11802;53.160;8.214;2023-12-29T05:02:09;8.33;;;2.60;;
23266;SDS011;11802;53.160;8.214;2023-12-29T05:04:34;11.77;;;2.30;;
23266;SDS011;11802;53.160;8.214;2023-12-29T05:07:00;12.43;;;2.40;;
23266;SDS011;11802;53.160;8.214;2023-12-29T05:09:25;11.57;;;2.57;;
23266;SDS011;11802;53.160;8.214;2023-12-29T05:11:51;13.30;;;2.87;;
23266;SDS011;11802;53.160;8.214;2023-12-29T05:14:17;12.50;;;2.23;;
23266;SDS011;11802;53.160;8.214;2023-12-29T05:16:42;14.77;;;3.27;;
23266;SDS011;11802;53.160;8.214;2023-12-29T05:19:09;13.77;;;2.60;;
23266;SDS011;11802;53.160;8.214;2023-12-29T05:21:35;8.50;;;2.13;;
23266;SDS011;11802;53.160;8.214;2023-12-29T05:24:00;11.63;;;2.53;;
23266;SDS011;11802;53.160;8.214;2023-12-29T05:26:26;9.17;;;2.10;;
23266;SDS011;11802;53.160;8.214;2023-12-29T05:28:51;13.47;;;2.33;;
23266;SDS011;11802;53.160;8.214;2023-12-29T05:31:17;9.60;;;2.43;;
23266;SDS011;11802;53.160;8.214;2023-12-29T05:33:43;13.47;;;2.50;;
23266;SDS011;11802;53.160;8.214;2023-12-29T05:36:10;12.63;;;2.30;;
23266;SDS011;11802;53.160;8.214;2023-12-29T05:38:36;11.90;;;2.53;;
23266;SDS011;11802;53.160;8.214;2023-12-29T05:41:03;12.83;;;2.60;;
23266;SDS011;11802;53.160;8.214;2023-12-29T05:43:30;10.77;;;2.30;;
23266;SDS011;11802;53.160;8.214;2023-12-29T05:45:56;15.40;;;3.23;;
23266;SDS011;11802;53.160;8.214;2023-12-29T05:48:22;14.23;;;2.57;;
23266;SDS011;11802;53.160;8.214;2023-12-29T05:50:49;12.47;;;2.33;;
23266;SDS011;11802;53.160;8.214;2023-12-29T05:53:18;11.80;;;2.43;;
23266;SDS011;11802;53.160;8.214;2023-12-29T05:55:44;10.90;;;2.53;;
23266;SDS011;11802;53.160;8.214;2023-12-29T05:58:10;11.80;;;2.97;;
23266;SDS011;11802;53.160;8.214;2023-12-29T06:00:36;14.03;;;2.67;;
23266;SDS011;11802;53.160;8.214;2023-12-29T06:03:02;19.27;;;2.83;;
23266;SDS011;11802;53.160;8.214;2023-12-29T06:05:29;13.47;;;2.77;;
23266;SDS011;11802;53.160;8.214;2023-12-29T06:07:55;14.30;;;2.33;;
23266;SDS011;11802;53.160;8.214;2023-12-29T06:10:21;11.50;;;2.30;;
23266;SDS011;11802;53.160;8.214;2023-12-29T06:12:46;13.40;;;2.73;;
23266;SDS011;11802;53.160;8.214;2023-12-29T06:15:12;16.77;;;3.57;;
23266;SDS011;11802;53.160;8.214;2023-12-29T06:17:39;14.43;;;2.73;;
23266;SDS011;11802;53.160;8.214;2023-12-29T06:20:05;16.13;;;3.07;;
23266;SDS011;11802;53.160;8.214;2023-12-29T06:22:32;20.90;;;4.00;;
23266;SDS011;11802;53.160;8.214;2023-12-29T06:24:57;15.10;;;2.27;;
23266;SDS011;11802;53.160;8.214;2023-12-29T06:27:24;13.17;;;2.30;;
23266;SDS011;11802;53.160;8.214;2023-12-29T06:29:50;15.67;;;2.90;;
23266;SDS011;11802;53.160;8.214;2023-12-29T06:32:15;12.27;;;2.73;;
23266;SDS011;11802;53.160;8.214;2023-12-29T06:34:41;10.63;;;2.77;;
23266;SDS011;11802;53.160;8.214;2023-12-29T06:37:07;9.83;;;2.30;;
23266;SDS011;11802;53.160;8.214;2023-12-29T06:39:33;11.30;;;2.27;;
23266;SDS011;11802;53.160;8.214;2023-12-29T06:41:58;12.30;;;2.67;;
23266;SDS011;11802;53.160;8.214;2023-12-29T06:44:24;16.63;;;3.13;;
23266;SDS011;11802;53.160;8.214;2023-12-29T06:46:49;21.23;;;3.47;;
23266;SDS011;11802;53.160;8.214;2023-12-29T06:49:15;16.23;;;2.53;;
23266;SDS011;11802;53.160;8.214;2023-12-29T06:51:40;14.10;;;3.13;;
23266;SDS011;11802;53.160;8.214;2023-12-29T06:54:06;14.33;;;2.27;;
23266;SDS011;11802;53.160;8.214;2023-12-29T06:56:32;10.97;;;2.30;;
23266;SDS011;11802;53.160;8.214;2023-12-29T06:58:58;18.80;;;2.80;;
23266;SDS011;11802;53.160;8.214;2023-12-29T07:01:23;14.37;;;2.97;;
23266;SDS011;11802;53.160;8.214;2023-12-29T07:03:49;9.50;;;1.77;;
23266;SDS011;11802;53.160;8.214;2023-12-29T07:06:15;14.90;;;3.03;;
23266;SDS011;11802;53.160;8.214;2023-12-29T07:08:40;13.17;;;2.70;;
23266;SDS011;11802;53.160;8.214;2023-12-29T07:11:09;15.43;;;2.80;;
23266;SDS011;11802;53.160;8.214;2023-12-29T07:13:36;13.30;;;2.57;;
23266;SDS011;11802;53.160;8.214;2023-12-29T07:16:02;14.07;;;2.90;;
23266;SDS011;11802;53.160;8.214;2023-12-29T07:18:28;15.93;;;2.60;;
23266;SDS011;11802;53.160;8.214;2023-12-29T07:20:54;16.43;;;3.27;;
23266;SDS011;11802;53.160;8.214;2023-12-29T07:23:19;15.03;;;2.50;;
23266;SDS011;11802;53.160;8.214;2023-12-29T07:25:45;16.77;;;2.43;;
23266;SDS011;11802;53.160;8.214;2023-12-29T07:28:12;15.67;;;2.67;;
23266;SDS011;11802;53.160;8.214;2023-12-29T07:30:37;15.90;;;2.77;;
23266;SDS011;11802;53.160;8.214;2023-12-29T07:33:03;15.07;;;2.67;;
23266;SDS011;11802;53.160;8.214;2023-12-29T07:35:28;16.47;;;2.80;;
23266;SDS011;11802;53.160;8.214;2023-12-29T07:37:54;19.47;;;3.40;;
23266;SDS011;11802;53.160;8.214;2023-12-29T07:40:20;10.77;;;2.13;;
23266;SDS011;11802;53.160;8.214;2023-12-29T07:42:46;15.83;;;2.60;;
23266;SDS011;11802;53.160;8.214;2023-12-29T07:45:15;22.37;;;3.37;;
23266;SDS011;11802;53.160;8.214;2023-12-29T07:47:41;16.83;;;2.43;;
23266;SDS011;11802;53.160;8.214;2023-12-29T07:50:06;17.40;;;3.30;;
23266;SDS011;11802;53.160;8.214;2023-12-29T07:52:32;16.77;;;2.87;;
23266;SDS011;11802;53.160;8.214;2023-12-29T07:54:58;13.93;;;3.23;;
23266;SDS011;11802;53.160;8.214;2023-12-29T07:57:24;14.50;;;2.30;;
23266;SDS011;11802;53.160;8.214;2023-12-29T07:59:51;15.27;;;3.27;;
23266;SDS011;11802;53.160;8.214;2023-12-29T08:02:16;18.73;;;3.37;;
23266;SDS011;11802;53.160;8.214;2023-12-29T08:04:42;13.23;;;3.07;;
23266;SDS011;11802;53.160;8.214;2023-12-29T08:07:10;19.40;;;3.60;;
23266;SDS011;11802;53.160;8.214;2023-12-29T08:09:35;15.43;;;3.10;;
23266;SDS011;11802;53.160;8.214;2023-12-29T08:12:01;20.93;;;3.90;;
23266;SDS011;11802;53.160;8.214;2023-12-29T08:14:26;12.70;;;2.60;;
23266;SDS011;11802;53.160;8.214;2023-12-29T08:16:53;10.47;;;2.87;;
23266;SDS011;11802;53.160;8.214;2023-12-29T08:19:18;14.50;;;3.10;;
23266;SDS011;11802;53.160;8.214;2023-12-29T08:21:44;20.27;;;3.40;;
23266;SDS011;11802;53.160;8.214;2023-12-29T08:24:10;17.73;;;2.70;;
23266;SDS011;11802;53.160;8.214;2023-12-29T08:26:43;21.17;;;3.23;;
23266;SDS011;11802;53.160;8.214;2023-12-29T08:29:10;20.57;;;3.33;;
23266;SDS011;11802;53.160;8.214;2023-12-29T08:31:36;15.60;;;3.23;;
23266;SDS011;11802;53.160;8.214;2023-12-29T08:34:01;13.93;;;2.90;;
23266;SDS011;11802;53.160;8.214;2023-12-29T08:36:27;15.83;;;2.87;;
23266;SDS011;11802;53.160;8.214;2023-12-29T08:38:52;12.87;;;2.57;;
23266;SDS011;11802;53.160;8.214;2023-12-29T08:41:18;8.30;;;1.70;;
23266;SDS011;11802;53.160;8.214;2023-12-29T08:43:44;10.10;;;1.83;;
23266;SDS011;11802;53.160;8.214;2023-12-29T08:46:09;6.97;;;1.60;;
23266;SDS011;11802;53.160;8.214;2023-12-29T08:48:35;10.10;;;2.10;;
23266;SDS011;11802;53.160;8.214;2023-12-29T08:51:00;16.63;;;2.50;;
23266;SDS011;11802;53.160;8.214;2023-12-29T08:53:26;11.33;;;2.40;;
23266;SDS011;11802;53.160;8.214;2023-12-29T08:55:52;14.07;;;2.83;;
23266;SDS011;11802;53.160;8.214;2023-12-29T08:58:17;8.53;;;2.60;;
23266;SDS011;11802;53.160;8.214;2023-12-29T09:00:43;13.53;;;3.40;;
23266;SDS011;11802;53.160;8.214;2023-12-29T09:03:08;14.13;;;2.60;;
23266;SDS011;11802;53.160;8.214;2023-12-29T09:05:34;11.73;;;2.57;;
23266;SDS011;11802;53.160;8.214;2023-12-29T09:08:00;13.03;;;2.90;;
23266;SDS011;11802;53.160;8.214;2023-12-29T09:10:25;12.93;;;3.00;;
23266;SDS011;11802;53.160;8.214;2023-12-29T09:12:51;12.10;;;2.87;;
23266;SDS011;11802;53.160;8.214;2023-12-29T09:15:16;14.00;;;3.30;;
23266;SDS011;11802;53.160;8.214;2023-12-29T09:17:42;14.60;;;3.63;;
23266;SDS011;11802;53.160;8.214;2023-12-29T09:20:08;10.80;;;3.10;;
23266;SDS011;11802;53.160;8.214;2023-12-29T09:22:34;11.50;;;2.40;;
23266;SDS011;11802;53.160;8.214;2023-12-29T09:24:59;12.83;;;3.47;;
23266;SDS011;11802;53.160;8.214;2023-12-29T09:27:25;11.53;;;3.07;;
23266;SDS011;11802;53.160;8.214;2023-12-29T09:29:50;16.80;;;3.03;;
23266;SDS011;11802;53.160;8.214;2023-12-29T09:32:16;18.20;;;3.97;;
23266;SDS011;11802;53.160;8.214;2023-12-29T09:34:42;18.27;;;3.47;;
23266;SDS011;11802;53.160;8.214;2023-12-29T09:37:07;16.43;;;2.73;;
23266;SDS011;11802;53.160;8.214;2023-12-29T09:39:33;11.37;;;2.77;;
23266;SDS011;11802;53.160;8.214;2023-12-29T09:41:59;15.23;;;2.90;;
23266;SDS011;11802;53.160;8.214;2023-12-29T09:44:25;17.87;;;3.37;;
23266;SDS011;11802;53.160;8.214;2023-12-29T09:46:54;22.03;;;3.43;;
23266;SDS011;11802;53.160;8.214;2023-12-29T09:49:20;12.70;;;3.00;;
23266;SDS011;11802;53.160;8.214;2023-12-29T09:51:46;15.83;;;2.90;;
23266;SDS011;11802;53.160;8.214;2023-12-29T09:54:13;18.53;;;3.07;;
23266;SDS011;11802;53.160;8.214;2023-12-29T09:56:40;17.83;;;3.37;;
23266;SDS011;11802;53.160;8.214;2023-12-29T09:59:08;17.20;;;3.63;;
23266;SDS011;11802;53.160;8.214;2023-12-29T10:01:35;15.53;;;3.40;;
23266;SDS011;11802;53.160;8.214;2023-12-29T10:04:02;15.03;;;3.40;;
23266;SDS011;11802;53.160;8.214;2023-12-29T10:06:28;14.63;;;3.23;;
23266;SDS011;11802;53.160;8.214;2023-12-29T10:08:59;13.50;;;2.67;;
23266;SDS011;11802;53.160;8.214;2023-12-29T10:11:31;11.67;;;2.53;;
23266;SDS011;11802;53.160;8.214;2023-12-29T10:14:00;13.53;;;3.33;;
23266;SDS011;11802;53.160;8.214;2023-12-29T10:16:45;10.90;;;3.20;;
23266;SDS011;11802;53.160;8.214;2023-12-29T10:21:57;8.73;;;2.03;;
23266;SDS011;11802;53.160;8.214;2023-12-29T10:24:30;9.43;;;2.07;;
23266;SDS011;11802;53.160;8.214;2023-12-29T10:26:56;11.83;;;2.30;;
23266;SDS011;11802;53.160;8.214;2023-12-29T10:29:21;11.17;;;2.20;;
23266;SDS011;11802;53.160;8.214;2023-12-29T10:31:48;11.20;;;1.90;;
23266;SDS011;11802;53.160;8.214;2023-12-29T10:36:56;9.23;;;2.27;;
23266;SDS011;11802;53.160;8.214;2023-12-29T10:39:23;9.40;;;2.20;;
23266;SDS011;11802;53.160;8.214;2023-12-29T10:41:49;7.50;;;2.00;;
23266;SDS011;11802;53.160;8.214;2023-12-29T10:44:15;7.37;;;1.60;;
23266;SDS011;11802;53.160;8.214;2023-12-29T10:46:42;7.67;;;1.90;;
23266;SDS011;11802;53.160;8.214;2023-12-29T10:49:08;8.07;;;1.80;;
23266;SDS011;11802;53.160;8.214;2023-12-29T10:51:34;9.23;;;1.57;;
23266;SDS011;11802;53.160;8.214;2023-12-29T10:54:00;7.63;;;1.70;;
23266;SDS011;11802;53.160;8.214;2023-12-29T10:56:26;14.00;;;2.10;;
23266;SDS011;11802;53.160;8.214;2023-12-29T11:01:25;6.57;;;1.70;;
23266;SDS011;11802;53.160;8.214;2023-12-29T11:04:04;9.83;;;2.00;;
23266;SDS011;11802;53.160;8.214;2023-12-29T11:06:40;8.13;;;1.60;;
23266;SDS011;11802;53.160;8.214;2023-12-29T11:09:10;7.80;;;2.17;;
23266;SDS011;11802;53.160;8.214;2023-12-29T11:11:36;6.17;;;1.80;;
23266;SDS011;11802;53.160;8.214;2023-12-29T11:14:02;7.40;;;1.67;;
23266;SDS011;11802;53.160;8.214;2023-12-29T11:16:29;9.07;;;2.27;;
23266;SDS011;11802;53.160;8.214;2023-12-29T11:18:56;6.70;;;1.60;;
23266;SDS011;11802;53.160;8.214;2023-12-29T11:21:23;8.23;;;2.20;;
23266;SDS011;11802;53.160;8.214;2023-12-29T11:23:52;5.80;;;1.73;;
23266;SDS011;11802;53.160;8.214;2023-12-29T11:26:18;9.90;;;2.20;;
23266;SDS011;11802;53.160;8.214;2023-12-29T11:28:46;6.03;;;2.07;;
23266;SDS011;11802;53.160;8.214;2023-12-29T11:31:14;6.40;;;2.00;;
23266;SDS011;11802;53.160;8.214;2023-12-29T11:33:46;12.27;;;2.73;;
23266;SDS011;11802;53.160;8.214;2023-12-29T11:36:20;9.87;;;2.30;;
23266;SDS011;11802;53.160;8.214;2023-12-29T11:44:29;7.30;;;2.20;;
23266;SDS011;11802;53.160;8.214;2023-12-29T11:46:56;7.33;;;2.00;;
23266;SDS011;11802;53.160;8.214;2023-12-29T11:49:23;13.13;;;2.30;;
23266;SDS011;11802;53.160;8.214;2023-12-29T11:51:49;10.70;;;2.23;;
23266;SDS011;11802;53.160;8.214;2023-12-29T11:54:21;7.67;;;1.97;;
23266;SDS011;11802;53.160;8.214;2023-12-29T11:56:51;8.10;;;1.93;;
23266;SDS011;11802;53.160;8.214;2023-12-29T11:59:19;9.33;;;2.10;;
23266;SDS011;11802;53.160;8.214;2023-12-29T12:01:49;8.90;;;2.00;;
23266;SDS011;11802;53.160;8.214;2023-12-29T12:04:34;4.67;;;1.43;;
23266;SDS011;11802;53.160;8.214;2023-12-29T12:07:01;9.20;;;1.80;;
23266;SDS011;11802;53.160;8.214;2023-12-29T12:09:27;8.03;;;1.63;;
23266;SDS011;11802;53.160;8.214;2023-12-29T12:11:53;5.43;;;1.80;;
23266;SDS011;11802;53.160;8.214;2023-12-29T12:17:09;10.33;;;1.83;;
23266;SDS011;11802;53.160;8.214;2023-12-29T12:19:35;6.93;;;1.40;;
23266;SDS011;11802;53.160;8.214;2023-12-29T12:22:01;8.13;;;1.63;;
23266;SDS011;11802;53.160;8.214;2023-12-29T12:24:28;9.63;;;2.17;;
23266;SDS011;11802;53.160;8.214;2023-12-29T12:26:56;10.80;;;1.57;;
23266;SDS011;11802;53.160;8.214;2023-12-29T12:29:22;9.13;;;2.13;;
23266;SDS011;11802;53.160;8.214;2023-12-29T12:31:55;8.70;;;1.70;;
23266;SDS011;11802;53.160;8.214;2023-12-29T12:34:21;9.77;;;1.50;;
23266;SDS011;11802;53.160;8.214;2023-12-29T12:36:48;7.40;;;1.50;;
23266;SDS011;11802;53.160;8.214;2023-12-29T12:39:17;10.20;;;1.60;;
23266;SDS011;11802;53.160;8.214;2023-12-29T12:41:43;6.87;;;1.63;;
23266;SDS011;11802;53.160;8.214;2023-12-29T12:44:13;7.20;;;1.23;;
23266;SDS011;11802;53.160;8.214;2023-12-29T12:49:22;6.27;;;1.67;;
23266;SDS011;11802;53.160;8.214;2023-12-29T12:51:48;7.23;;;1.20;;
23266;SDS011;11802;53.160;8.214;2023-12-29T12:54:17;7.03;;;1.80;;
23266;SDS011;11802;53.160;8.214;2023-12-29T12:56:44;7.57;;;1.57;;
23266;SDS011;11802;53.160;8.214;2023-12-29T12:59:11;10.90;;;1.50;;
23266;SDS011;11802;53.160;8.214;2023-12-29T13:01:37;6.90;;;1.77;;
23266;SDS011;11802;53.160;8.214;2023-12-29T13:04:03;10.70;;;1.80;;
23266;SDS011;11802;53.160;8.214;2023-12-29T13:06:31;8.30;;;1.50;;
23266;SDS011;11802;53.160;8.214;2023-12-29T13:08:58;10.90;;;1.90;;
23266;SDS011;11802;53.160;8.214;2023-12-29T13:11:25;9.20;;;2.20;;
23266;SDS011;11802;53.160;8.214;2023-12-29T13:13:51;8.43;;;2.00;;
23266;SDS011;11802;53.160;8.214;2023-12-29T13:16:35;11.20;;;1.93;;
23266;SDS011;11802;53.160;8.214;2023-12-29T13:21:45;9.93;;;1.87;;
23266;SDS011;11802;53.160;8.214;2023-12-29T13:24:15;15.80;;;2.00;;
23266;SDS011;11802;53.160;8.214;2023-12-29T13:26:42;10.00;;;1.97;;
23266;SDS011;11802;53.160;8.214;2023-12-29T13:29:11;9.53;;;1.93;;
23266;SDS011;11802;53.160;8.214;2023-12-29T13:31:37;8.27;;;1.87;;
23266;SDS011;11802;53.160;8.214;2023-12-29T13:34:06;8.33;;;1.90;;
23266;SDS011;11802;53.160;8.214;2023-12-29T13:36:42;13.47;;;2.10;;
23266;SDS011;11802;53.160;8.214;2023-12-29T13:39:42;10.37;;;2.07;;
23266;SDS011;11802;53.160;8.214;2023-12-29T13:42:29;11.30;;;2.07;;
23266;SDS011;11802;53.160;8.214;2023-12-29T13:44:56;11.43;;;2.20;;
23266;SDS011;11802;53.160;8.214;2023-12-29T13:47:24;9.60;;;2.17;;
23266;SDS011;11802;53.160;8.214;2023-12-29T13:49:50;12.27;;;2.43;;
23266;SDS011;11802;53.160;8.214;2023-12-29T13:52:16;12.53;;;2.33;;
23266;SDS011;11802;53.160;8.214;2023-12-29T13:54:44;8.17;;;1.97;;
23266;SDS011;11802;53.160;8.214;2023-12-29T13:57:09;9.00;;;2.47;;
23266;SDS011;11802;53.160;8.214;2023-12-29T13:59:36;12.70;;;2.93;;
23266;SDS011;11802;53.160;8.214;2023-12-29T14:10:30;15.23;;;1.90;;
23266;SDS011;11802;53.160;8.214;2023-12-29T14:13:03;11.23;;;2.20;;
23266;SDS011;11802;53.160;8.214;2023-12-29T14:15:34;7.80;;;1.60;;
23266;SDS011;11802;53.160;8.214;2023-12-29T14:20:38;9.37;;;1.67;;
23266;SDS011;11802;53.160;8.214;2023-12-29T14:23:06;10.97;;;2.10;;
23266;SDS011;11802;53.160;8.214;2023-12-29T14:25:35;10.07;;;1.63;;
23266;SDS011;11802;53.160;8.214;2023-12-29T14:28:02;10.00;;;1.97;;
23266;SDS011;11802;53.160;8.214;2023-12-29T14:30:28;12.43;;;2.40;;
23266;SDS011;11802;53.160;8.214;2023-12-29T14:32:57;13.93;;;2.00;;
23266;SDS011;11802;53.160;8.214;2023-12-29T14:35:23;11.30;;;2.27;;
23266;SDS011;11802;53.160;8.214;2023-12-29T14:37:49;15.10;;;2.53;;
23266;SDS011;11802;53.160;8.214;2023-12-29T14:40:14;12.90;;;2.17;;
23266;SDS011;11802;53.160;8.214;2023-12-29T14:42:40;12.20;;;2.07;;
23266;SDS011;11802;53.160;8.214;2023-12-29T14:45:06;13.07;;;2.40;;
23266;SDS011;11802;53.160;8.214;2023-12-29T14:47:32;10.67;;;2.07;;
23266;SDS011;11802;53.160;8.214;2023-12-29T14:49:59;11.70;;;2.10;;
23266;SDS011;11802;53.160;8.214;2023-12-29T14:52:25;12.80;;;2.47;;
23266;SDS011;11802;53.160;8.214;2023-12-29T14:54:51;8.47;;;1.70;;
23266;SDS011;11802;53.160;8.214;2023-12-29T14:57:16;12.90;;;1.80;;
23266;SDS011;11802;53.160;8.214;2023-12-29T14:59:42;11.77;;;1.97;;
23266;SDS011;11802;53.160;8.214;2023-12-29T15:02:08;11.50;;;1.70;;
23266;SDS011;11802;53.160;8.214;2023-12-29T15:04:34;9.90;;;1.90;;
23266;SDS011;11802;53.160;8.214;2023-12-29T15:07:00;10.70;;;1.87;;
23266;SDS011;11802;53.160;8.214;2023-12-29T15:09:27;10.93;;;1.97;;
23266;SDS011;11802;53.160;8.214;2023-12-29T15:11:52;8.20;;;1.80;;